Terminal Aerodrome Forecast
Issued by NWS Austin/San Antonio, TX

Home | Current Version | Previous Version | Text Only | Print | Product List | Glossary On
Versions: 1 2 3 4 5 6 7 8 9 10 11 12 13 14 15 16 17 18 19 20 21
132
FTUS44 KEWX 270522
TAFAUS
TAF
KAUS 270522Z 2706/2812 15006KT P6SM OVC015
     FM270700 15005KT 5SM BR OVC007
     FM271100 15004KT 2SM BR OVC004
     FM271700 18008KT P6SM OVC007
     FM272100 18008KT P6SM SCT020 BKN030=

USA.gov is the U.S. government's official web portal to all federal, state and local government web resources and services.